Flight Information

DEPARTURE
SAN DIEGO, CA
Elevation:
427
Runways:
10L/28R - 4598x150 - ASPH-G
10R/28L - 3401x60 - ASPH-G
5/23 - 3400x75 - ASPH-TRTD-E
H1 - 48x48 - ASPH-G
Active PE Departure:
28R - 28L
Current PE ATIS:
E
Altimeter:
29.89
Remarks:
ATIS:
126.9 858-277-3075
Clearance Delivery:
123.725
Ground:
118.22
Tower:
119.2 125.7
DESTINATION
,
Elevation:
TPA:
1000 (est.)


6752.3 NM74° True-13° Var61° HDG

Flight Plan:
(click to file on line)

1. Type
2. Aircraft Identification
3. Aircraft Type / Special Equipment
4. True Airspeed
kts
5. Departure Airport
(ICAO code)
6. Arriving Airport
(ICAO code)
7. Cruising Altitude
ft
8. Alternate Airport
(ICAO code)
9. Route of Flight
10. Remarks


00:00:00 Departure ATIS: Destination ATIS:

Clearance Limit:
Route:
Altitude: Expect in minutes
Frequency:
Transponder: (7500 Hijack / 7600 Lost Comms / 7700 Emergency)


KMYF 110453Z AUTO 16006KT 8SM OVC012 14/11 A2990 RMK AO2 SLP121 T01440106
Time: 2021-04-11T04:53:00Z
1618117005
Winds: 160 @ 6 kts
Visibility: 8.0 sm
Clouds (AGL): OVC 1200
Temperature: 14.4 C
Dew Point: 10.6 C
Pressure: 29.899607 in Hgbr


Notes:

Data extracted from FAA Digital Chart Supplement. Effective: 0901Z Thursday, Feb 25, 2021 to 0901Z Thursday, APR 22, 2021
Current ATIS data is provided courtisy of PilotEdge.